Aérodrome :
LOGIN :

S'inscrire | Disclaimer

   EN    FR    IT 

 










Légende :    VFR   VFR Marginal   IFR   IFR Intensif   IFR Très Intensif
Visi : 
Plafond : 
>= 8 km
>= 3000ft
5 à 8 km
1000 à 3000 ft
1500m à 5 km
500 à 1000 ft
800 à 1500m
200 à 500 ft
< 800m
< 200 ft
Symboles :   Orages  Brouillard  Fortes neiges  Fortes précipitations  Vent > 20 kt
SIGMETs :   Divers  Orages  Givrage  Turbulence  Onde Orograph.  Cendres Volcan.







- Altitude de l'aérodrome : 935 ft


EBFS - Florennes

DERNIER METAR :
  • 222355Z 23019KT 4000 -DZ BKN004 BKN006 08/07 Q1009 YLO

METARs EXPIRÉS :
  • 222325Z 24018KT 4000 -DZ BKN004 BKN006 08/07 Q1009 YLO
  • 222255Z 24019KT 4000 -DZ BKN004 BKN006 08/07 Q1009 YLO
  • 222225Z 24017KT 4000 -DZ BKN005 BKN007 08/08 Q1010 YLO
  • 222155Z 23018KT 4000 -DZ BKN005 BKN007 08/08 Q1010 YLO
  • 222125Z 23017KT 4000 -DZ BKN005 BKN007 08/08 Q1010 YLO

TAF TAF EBFS
Valide du 22 à 19h jusqu'au 23 à 07h UTC


221541Z 2219/2307 24018G30KT 4000 RADZ SCT005 BKN008
TEMPO 2219/2307 23020G34KT 2000 DZRA SCT003 BKN006
BECMG 2302/2305 21022G35KT
Pas de NOTAMs connus pour ce terrain.
1 SIGMET publié pour la FIR Brussels (EBBU) :
 
Turbulence forte
EBBU SIGMET 03 VALID 230000/230400 EBBR
EBBU BRUSSELS FIR SEV TURB FCST AT 0000Z W OF LINE N5116 E00352 - N5042 E00308 SFC/FL050 MOV SE INTSF=



MET'MAP, la Météo Aéronautique d'un coup d'oeil ! - Copyright ORBIFLY Décembre 2007 - Disclaimer

ORBIFLY MET'MAP TEAM :

Programmation & Développement : Alexandra Zaïnal
Conception & Développement : Baudouin d'Aumeries
Co-Programmation & Développement : Marc-Olivier Méhu
Soutien technique & logistique : Manuel Goepfert

Contact : metmap@orbifly.com




SOURCES & CREDITS :

   NOAA